Time;durP1;ratioP1;P1;durP2;ratioP2;P2;SDS_P1;SDS_P2;PMS_P1;PMS_P2;Temp;Humidity;BMP_temperature;BMP_pressure;BME280_temperature;BME280_humidity;BME280_pressure;Samples;Min_cycle;Max_cycle;Signal;HPM_P1;HPM_P2
2022/10/02 00:02:22;;;;;;;66.03;51.53;;;25.80;99.90;;;;;;5072842;28;20386;-65
2022/10/02 00:04:53;;;;;;;77.50;59.80;;;25.90;99.90;;;;;;5072833;28;20048;-65
2022/10/02 00:07:30;;;;;;;47.50;38.22;;;25.90;99.90;;;;;;5072881;28;20036;-66
2022/10/02 00:10:02;;;;;;;32.60;23.88;;;25.90;99.90;;;;;;5073128;28;20107;-66
2022/10/02 00:12:30;;;;;;;21.27;17.80;;;25.90;99.90;;;;;;5072736;28;20032;-66
2022/10/02 00:15:09;;;;;;;19.98;16.23;;;25.80;99.90;;;;;;5072880;28;20099;-66
2022/10/02 00:17:43;;;;;;;23.10;18.92;;;25.90;99.90;;;;;;5072717;28;20166;-66
2022/10/02 00:20:18;;;;;;;23.73;19.15;;;25.90;99.90;;;;;;5072715;28;20025;-65
2022/10/02 00:22:44;;;;;;;21.80;17.67;;;25.90;99.90;;;;;;5071482;28;20391;-66
2022/10/02 00:25:30;;;;;;;20.20;16.92;;;25.90;99.90;;;;;;5072654;28;20109;-66
2022/10/02 00:28:06;;;;;;;23.38;18.08;;;25.90;99.90;;;;;;5072516;28;20418;-65
2022/10/02 00:30:45;;;;;;;17.60;15.50;;;26.00;99.90;;;;;;5075837;28;20063;-65
2022/10/02 00:33:28;;;;;;;18.73;14.50;;;26.00;99.90;;;;;;5076339;28;20016;-65
2022/10/02 00:36:10;;;;;;;18.70;14.52;;;26.00;99.90;;;;;;5076375;28;20021;-66
2022/10/02 00:38:49;;;;;;;16.13;14.48;;;26.00;99.90;;;;;;5076527;28;20048;-65
2022/10/02 00:41:38;;;;;;;18.88;15.38;;;26.00;99.90;;;;;;5076070;28;20035;-65
2022/10/02 00:44:05;;;;;;;20.75;18.15;;;26.00;99.90;;;;;;5078128;28;20036;-66
2022/10/02 00:46:33;;;;;;;23.58;18.42;;;26.10;99.90;;;;;;5075961;28;20020;-65
2022/10/02 00:49:22;;;;;;;75.07;60.40;;;26.10;99.90;;;;;;5076099;28;20037;-65
2022/10/02 00:51:50;;;;;;;27.15;20.38;;;26.10;99.90;;;;;;5013862;28;20416;-65
2022/10/02 00:54:43;;;;;;;33.25;24.63;;;26.10;99.90;;;;;;5014006;28;20026;-65
2022/10/02 00:57:38;;;;;;;25.23;16.85;;;26.20;99.90;;;;;;5014231;28;20026;-64
2022/10/02 01:00:09;;;;;;;25.42;18.95;;;26.10;99.90;;;;;;5011711;28;20042;-65
2022/10/02 01:02:45;;;;;;;31.27;20.67;;;26.10;99.90;;;;;;4994907;28;20105;-65
2022/10/02 01:05:12;;;;;;;22.40;17.88;;;26.20;99.90;;;;;;4996688;28;20022;-64
2022/10/02 01:07:42;;;;;;;23.02;19.30;;;26.20;99.90;;;;;;4994356;28;20022;-64
2022/10/02 01:10:11;;;;;;;90.70;68.60;;;26.30;99.90;;;;;;4994001;28;20018;-65
2022/10/02 01:12:39;;;;;;;205.18;183.05;;;26.30;99.90;;;;;;4994439;28;20482;-65
2022/10/02 01:15:16;;;;;;;86.10;66.47;;;26.30;99.90;;;;;;4994228;28;20030;-65
2022/10/02 01:17:43;;;;;;;55.00;41.75;;;26.40;99.90;;;;;;5011187;28;20504;-67
2022/10/02 01:20:16;;;;;;;58.25;38.58;;;26.40;99.90;;;;;;5013823;28;20534;-66
2022/10/02 01:22:44;;;;;;;46.53;36.15;;;26.40;99.90;;;;;;5052583;28;20028;-64
2022/10/02 01:25:29;;;;;;;36.60;28.83;;;26.40;99.90;;;;;;5075491;28;20028;-64
2022/10/02 01:27:56;;;;;;;37.15;29.80;;;26.40;99.90;;;;;;5075601;28;20055;-65
2022/10/02 01:30:23;;;;;;;43.92;25.90;;;26.50;99.90;;;;;;5075108;28;20027;-64
2022/10/02 01:32:52;;;;;;;25.60;20.98;;;26.60;99.90;;;;;;5075404;28;20029;-64
2022/10/02 01:35:22;;;;;;;33.38;26.85;;;26.60;99.90;;;;;;5075194;28;20020;-63
2022/10/02 01:37:51;;;;;;;15.35;13.30;;;26.80;99.90;;;;;;5065823;28;20051;-63
2022/10/02 01:40:38;;;;;;;14.70;12.15;;;26.80;99.90;;;;;;5054495;28;20021;-64
2022/10/02 01:43:09;;;;;;;13.23;11.23;;;26.80;99.90;;;;;;5054893;28;20028;-63
2022/10/02 01:45:43;;;;;;;22.45;13.55;;;26.90;99.90;;;;;;5054960;28;20473;-64
2022/10/02 01:48:38;;;;;;;13.57;10.95;;;27.00;99.90;;;;;;5054980;28;20044;-64
2022/10/02 01:51:34;;;;;;;29.48;18.55;;;27.10;99.90;;;;;;5054896;28;20050;-63
2022/10/02 01:54:28;;;;;;;15.57;11.35;;;27.00;99.90;;;;;;5013078;28;20037;-64
2022/10/02 01:57:09;;;;;;;15.57;11.30;;;27.20;99.90;;;;;;5012918;28;20033;-64
2022/10/02 01:59:46;;;;;;;27.60;24.55;;;27.20;99.90;;;;;;5023888;28;20512;-64
2022/10/02 02:02:22;;;;;;;21.73;13.90;;;27.30;99.90;;;;;;5018211;28;20113;-64
2022/10/02 02:04:54;;;;;;;61.25;50.15;;;27.30;99.90;;;;;;5019919;28;20048;-63
2022/10/02 02:07:24;;;;;;;21.95;16.77;;;27.40;99.90;;;;;;5032535;28;20041;-64
2022/10/02 02:10:13;;;;;;;14.88;10.90;;;27.50;99.90;;;;;;5032405;28;20074;-64
2022/10/02 02:12:44;;;;;;;15.27;9.25;;;27.60;99.90;;;;;;5032527;28;20029;-63
2022/10/02 02:15:24;;;;;;;18.55;10.80;;;27.50;99.90;;;;;;5032458;28;20092;-64
2022/10/02 02:17:56;;;;;;;16.20;12.63;;;27.60;99.90;;;;;;5032405;28;20112;-64
2022/10/02 02:20:29;;;;;;;21.48;14.02;;;27.70;99.90;;;;;;5032329;28;20017;-64
2022/10/02 02:23:04;;;;;;;26.08;18.52;;;27.70;99.90;;;;;;5032122;28;20029;-65
2022/10/02 02:25:33;;;;;;;41.63;32.83;;;27.80;99.90;;;;;;5032134;28;20084;-65
2022/10/02 02:28:05;;;;;;;70.57;31.65;;;27.90;99.90;;;;;;5032354;28;20107;-64
2022/10/02 02:30:32;;;;;;;34.53;17.58;;;27.90;99.90;;;;;;5043428;28;20036;-65
2022/10/02 02:33:06;;;;;;;34.95;19.17;;;28.00;99.90;;;;;;5074010;28;20029;-64
2022/10/02 02:35:38;;;;;;;33.33;23.08;;;28.10;99.90;;;;;;5073890;28;20027;-64
2022/10/02 02:38:23;;;;;;;21.27;17.35;;;28.30;99.90;;;;;;5073984;28;20103;-64
2022/10/02 02:40:51;;;;;;;22.98;18.23;;;28.40;99.90;;;;;;5074336;28;20048;-64
2022/10/02 02:43:26;;;;;;;20.02;16.45;;;28.40;99.90;;;;;;5066189;28;20029;-63
2022/10/02 02:45:58;;;;;;;40.83;32.90;;;28.30;99.90;;;;;;5053866;28;20021;-64
2022/10/02 02:48:33;;;;;;;107.28;77.80;;;28.30;99.90;;;;;;5053774;28;20427;-63
2022/10/02 02:51:12;;;;;;;26.23;20.90;;;28.40;99.90;;;;;;5053671;28;20029;-65
2022/10/02 02:53:46;;;;;;;20.35;14.40;;;28.50;99.90;;;;;;5053633;28;20025;-66
2022/10/02 02:56:17;;;;;;;23.63;15.73;;;28.50;99.90;;;;;;5053787;28;20021;-64
2022/10/02 02:58:47;;;;;;;34.60;22.85;;;28.60;99.90;;;;;;5053456;28;20434;-65
2022/10/02 03:01:13;;;;;;;18.73;14.35;;;28.70;99.90;;;;;;5053472;28;20040;-64
2022/10/02 03:03:40;;;;;;;24.52;17.73;;;28.80;99.90;;;;;;5053508;28;20046;-65
2022/10/02 03:06:16;;;;;;;22.20;17.65;;;28.90;99.90;;;;;;5053350;28;20027;-65
2022/10/02 03:08:43;;;;;;;26.33;17.02;;;29.00;99.90;;;;;;5053433;28;20111;-65
2022/10/02 03:11:16;;;;;;;20.10;14.80;;;29.10;99.90;;;;;;5053196;28;20101;-64
2022/10/02 03:14:04;;;;;;;19.98;14.55;;;29.40;99.90;;;;;;5053339;28;20379;-64
2022/10/02 03:16:45;;;;;;;20.17;10.98;;;29.50;99.90;;;;;;5053265;28;20029;-64
2022/10/02 03:19:25;;;;;;;11.90;8.70;;;29.50;99.90;;;;;;5053368;28;20533;-64
2022/10/02 03:22:01;;;;;;;17.58;10.35;;;29.60;99.90;;;;;;5053176;28;20399;-65
2022/10/02 03:24:46;;;;;;;13.00;10.27;;;29.70;99.90;;;;;;5053217;28;20215;-65
2022/10/02 03:27:32;;;;;;;14.25;11.43;;;29.60;99.90;;;;;;5053405;28;20064;-65
2022/10/02 03:30:09;;;;;;;15.95;13.88;;;29.50;99.90;;;;;;5013705;28;20076;-63
2022/10/02 03:32:39;;;;;;;18.35;14.02;;;29.40;99.90;;;;;;5019960;28;20075;-63
2022/10/02 03:35:10;;;;;;;19.83;14.13;;;29.50;99.90;;;;;;5011290;28;20087;-64
2022/10/02 03:37:38;;;;;;;22.60;11.25;;;29.60;99.90;;;;;;5011198;28;20025;-64
2022/10/02 03:40:06;;;;;;;16.70;11.02;;;29.70;99.90;;;;;;5011421;28;20524;-64
2022/10/02 03:42:35;;;;;;;16.55;11.32;;;29.90;99.90;;;;;;5011263;28;20034;-64
2022/10/02 03:45:03;;;;;;;90.70;66.60;;;30.00;99.90;;;;;;5011266;28;20085;-64
2022/10/02 03:47:29;;;;;;;32.42;20.80;;;30.00;99.90;;;;;;5011188;28;20056;-64
2022/10/02 03:49:56;;;;;;;22.17;15.57;;;30.20;99.90;;;;;;5027901;28;20056;-64
2022/10/02 03:52:23;;;;;;;11.60;8.60;;;30.20;99.90;;;;;;5027940;28;20026;-64
2022/10/02 03:55:03;;;;;;;8.48;5.97;;;30.30;99.90;;;;;;5029847;28;20109;-66
2022/10/02 03:57:33;;;;;;;9.88;5.80;;;30.20;99.90;;;;;;5029521;28;20021;-65
2022/10/02 04:00:07;;;;;;;12.02;7.30;;;30.20;99.90;;;;;;5043106;28;20028;-65
2022/10/02 04:02:37;;;;;;;7.55;6.03;;;30.30;99.90;;;;;;5078470;28;20024;-65
2022/10/02 04:05:07;;;;;;;7.15;6.35;;;30.40;99.90;;;;;;5084690;28;20023;-65
2022/10/02 04:07:39;;;;;;;11.40;5.63;;;30.50;99.90;;;;;;5087154;28;20038;-64
2022/10/02 04:10:29;;;;;;;9.77;7.30;;;30.50;99.90;;;;;;5083379;28;20036;-65
2022/10/02 04:13:03;;;;;;;10.70;7.00;;;30.60;99.90;;;;;;5083562;28;20563;-64
2022/10/02 04:15:36;;;;;;;8.75;6.53;;;30.70;99.90;;;;;;5084668;28;20032;-65
2022/10/02 04:18:24;;;;;;;8.85;6.75;;;30.70;99.90;;;;;;5082460;28;20013;-65
2022/10/02 04:21:11;;;;;;;9.13;6.10;;;30.60;99.90;;;;;;5082353;28;20036;-65
2022/10/02 04:23:49;;;;;;;9.85;7.07;;;30.50;99.90;;;;;;5076883;28;20534;-65
2022/10/02 04:26:32;;;;;;;7.53;5.78;;;30.70;99.90;;;;;;5072754;28;20028;-65
2022/10/02 04:29:20;;;;;;;11.48;7.57;;;30.70;99.90;;;;;;5077930;28;20052;-66
2022/10/02 04:31:53;;;;;;;7.05;5.65;;;30.80;99.90;;;;;;5076607;28;20028;-68
2022/10/02 04:34:19;;;;;;;9.88;7.72;;;30.80;99.90;;;;;;5074081;28;20028;-67
2022/10/02 04:37:00;;;;;;;15.20;11.35;;;30.70;99.90;;;;;;5076721;28;20024;-67
2022/10/02 04:39:35;;;;;;;15.20;8.80;;;30.70;99.90;;;;;;5076662;28;20070;-65
2022/10/02 04:42:21;;;;;;;8.57;6.10;;;30.80;99.90;;;;;;5076685;28;20033;-68
2022/10/02 04:44:48;;;;;;;8.48;6.20;;;30.90;99.90;;;;;;5034326;28;20403;-69
2022/10/02 04:47:42;;;;;;;9.35;6.65;;;31.00;99.90;;;;;;5034173;28;20041;-66
2022/10/02 04:50:21;;;;;;;9.02;6.70;;;31.00;99.90;;;;;;5034452;28;20416;-67
2022/10/02 04:53:11;;;;;;;29.65;24.38;;;30.90;99.90;;;;;;5035142;28;20044;-67
2022/10/02 04:55:37;;;;;;;7.35;5.70;;;30.90;99.90;;;;;;5034310;28;20108;-67
2022/10/02 04:58:06;;;;;;;9.88;5.63;;;30.90;99.90;;;;;;5034648;28;20105;-67
2022/10/02 05:00:45;;;;;;;20.60;15.73;;;30.90;99.90;;;;;;5034287;28;20041;-68
2022/10/02 05:03:21;;;;;;;18.88;12.07;;;31.10;99.90;;;;;;5034402;28;20092;-67
2022/10/02 05:06:23;;;;;;;22.00;14.13;;;31.10;99.90;;;;;;5030854;28;20028;-67
2022/10/02 05:09:06;;;;;;;16.08;9.98;;;31.10;99.90;;;;;;5014714;28;20057;-66
2022/10/02 05:11:59;;;;;;;11.77;6.78;;;31.30;99.90;;;;;;5034202;28;20451;-67
2022/10/02 05:14:35;;;;;;;8.45;6.43;;;31.20;99.90;;;;;;5034283;28;20103;-66
2022/10/02 05:17:29;;;;;;;17.48;8.75;;;31.30;99.90;;;;;;5026316;28;20026;-67
2022/10/02 05:20:21;;;;;;;11.45;6.82;;;31.30;99.90;;;;;;5016669;28;20034;-66
2022/10/02 05:22:54;;;;;;;6.63;4.50;;;31.30;99.90;;;;;;5051269;28;20112;-66
2022/10/02 05:25:28;;;;;;;13.57;5.78;;;31.40;99.90;;;;;;5069044;28;20495;-67
2022/10/02 05:28:34;;;;;;;6.70;5.22;;;31.30;99.90;;;;;;5077778;28;20035;-65
2022/10/02 05:31:24;;;;;;;12.70;4.25;;;31.20;99.90;;;;;;5084973;28;20027;-66
2022/10/02 05:34:02;;;;;;;5.65;3.38;;;31.40;99.90;;;;;;5084443;28;20035;-66
2022/10/02 05:36:53;;;;;;;9.75;5.25;;;31.40;99.90;;;;;;5082579;28;20481;-65
2022/10/02 05:39:27;;;;;;;10.20;6.18;;;31.40;99.90;;;;;;5083602;28;20017;-65
2022/10/02 05:42:02;;;;;;;10.95;6.53;;;31.40;99.90;;;;;;5084336;28;20024;-66
2022/10/02 05:44:38;;;;;;;9.45;4.80;;;31.50;99.90;;;;;;5078788;28;20052;-65
2022/10/02 05:47:45;;;;;;;4.95;3.83;;;31.60;99.90;;;;;;5083112;28;20051;-64
2022/10/02 05:50:11;;;;;;;8.82;4.45;;;31.80;99.90;;;;;;5081569;28;20025;-66
2022/10/02 05:53:04;;;;;;;101.10;70.38;;;32.00;99.90;;;;;;5075526;28;20063;-65
2022/10/02 05:55:38;;;;;;;7.07;5.32;;;32.00;99.90;;;;;;5075276;28;20028;-64
2022/10/02 05:58:14;;;;;;;5.10;4.25;;;31.90;99.90;;;;;;5075582;28;20024;-65
2022/10/02 06:00:53;;;;;;;10.15;5.20;;;31.80;99.90;;;;;;5075321;28;20474;-65
2022/10/02 06:03:30;;;;;;;11.77;8.02;;;31.70;99.90;;;;;;5115830;22;20096;-65
2022/10/02 06:06:04;;;;;;;9.68;5.00;;;31.60;99.90;;;;;;5095583;28;20046;-64
2022/10/02 06:08:47;;;;;;;44.53;33.85;;;31.70;99.90;;;;;;5095707;28;20060;-65
2022/10/02 06:11:20;;;;;;;9.60;5.13;;;31.70;99.90;;;;;;5095359;28;20021;-64
2022/10/02 06:14:10;;;;;;;16.55;6.38;;;31.70;99.90;;;;;;5095474;28;20020;-63
2022/10/02 06:17:00;;;;;;;6.25;4.53;;;31.80;99.90;;;;;;5072581;28;20063;-64
2022/10/02 06:19:36;;;;;;;5.43;4.75;;;31.80;99.90;;;;;;5012351;28;20501;-64
2022/10/02 06:22:23;;;;;;;9.13;5.18;;;31.80;99.90;;;;;;4994158;28;20042;-64
2022/10/02 06:24:56;;;;;;;19.30;11.13;;;31.90;99.90;;;;;;4993534;28;20045;-63
2022/10/02 06:27:45;;;;;;;10.95;3.88;;;31.90;99.90;;;;;;5009960;28;20065;-64
2022/10/02 06:30:16;;;;;;;6.38;3.53;;;31.80;99.90;;;;;;5013485;28;20057;-64
2022/10/02 06:32:57;;;;;;;14.35;5.45;;;31.90;99.90;;;;;;5012644;28;20071;-64
2022/10/02 06:38:41;;;;;;;8.25;3.53;;;31.80;99.90;;;;;;5073252;28;20112;-64
2022/10/02 06:41:23;;;;;;;4.50;2.90;;;31.70;99.90;;;;;;5072768;28;20048;-64
2022/10/02 06:43:59;;;;;;;;;;;31.70;99.90;;;;;;5063537;28;20040;-64
2022/10/02 06:46:35;;;;;;;7.40;4.15;;;31.50;99.90;;;;;;5059700;28;19905;-64
2022/10/02 06:49:21;;;;;;;9.43;4.22;;;31.60;99.90;;;;;;5095103;28;20073;-65
2022/10/02 06:51:52;;;;;;;11.30;3.05;;;31.80;99.90;;;;;;5094447;28;20093;-63
2022/10/02 06:54:31;;;;;;;5.63;3.75;;;31.90;99.90;;;;;;5095029;28;20088;-63
2022/10/02 06:57:00;;;;;;;5.50;3.17;;;32.10;99.90;;;;;;5095039;28;20028;-64
2022/10/02 06:59:31;;;;;;;6.65;3.55;;;32.20;99.90;;;;;;5094928;28;20570;-65
2022/10/02 07:02:25;;;;;;;4.40;3.45;;;32.30;99.90;;;;;;5118882;22;20051;-65
2022/10/02 07:05:01;;;;;;;7.57;3.55;;;32.40;99.90;;;;;;5083185;28;20048;-65
2022/10/02 07:07:37;;;;;;;4.50;2.40;;;32.40;99.90;;;;;;5080273;28;20402;-63
2022/10/02 07:10:06;;;;;;;3.80;2.63;;;32.30;99.90;;;;;;5093760;28;20016;-66
2022/10/02 07:12:39;;;;;;;3.92;3.28;;;32.30;99.90;;;;;;5091204;28;20084;-65
2022/10/02 07:15:31;;;;;;;3.67;3.08;;;32.40;99.90;;;;;;5087973;28;20024;-65
2022/10/02 07:18:18;;;;;;;3.15;2.63;;;32.40;99.90;;;;;;5091170;28;20065;-65
2022/10/02 07:21:14;;;;;;;6.15;2.97;;;32.30;99.90;;;;;;5093880;28;20043;-65
2022/10/02 07:24:03;;;;;;;9.63;4.18;;;32.40;99.90;;;;;;5093960;28;20141;-65
2022/10/02 07:26:30;;;;;;;10.60;3.35;;;32.40;99.90;;;;;;5093916;28;20108;-65
2022/10/02 07:29:06;;;;;;;7.60;3.30;;;32.40;99.90;;;;;;5099192;28;20030;-65
2022/10/02 07:31:44;;;;;;;4.38;3.55;;;32.30;99.90;;;;;;5101153;28;20070;-65
2022/10/02 07:34:29;;;;;;;8.82;4.32;;;32.20;99.90;;;;;;5099854;28;20020;-64
2022/10/02 07:37:01;;;;;;;3.50;2.80;;;32.40;99.90;;;;;;5101701;28;20162;-64
2022/10/02 07:39:45;;;;;;;3.75;2.58;;;32.60;99.90;;;;;;5098818;28;20019;-65
2022/10/02 07:42:14;;;;;;;7.03;2.90;;;32.70;99.90;;;;;;5101172;28;20490;-65
2022/10/02 07:44:46;;;;;;;6.65;2.65;;;32.60;99.90;;;;;;5102822;28;20102;-65
2022/10/02 07:47:18;;;;;;;3.53;2.80;;;32.60;99.90;;;;;;5101684;28;20196;-63
2022/10/02 07:50:04;;;;;;;5.82;3.95;;;32.70;99.90;;;;;;5090716;28;20558;-66
2022/10/02 07:52:49;;;;;;;4.53;3.33;;;32.70;99.90;;;;;;5080291;28;20031;-65
2022/10/02 07:55:19;;;;;;;9.20;3.40;;;32.70;99.90;;;;;;5073951;28;20013;-65
2022/10/02 07:57:59;;;;;;;6.03;3.95;;;32.70;99.90;;;;;;5073639;28;20023;-66
2022/10/02 08:00:30;;;;;;;9.15;4.38;;;32.70;99.90;;;;;;5074093;28;20553;-66
2022/10/02 08:03:01;;;;;;;6.50;3.80;;;32.80;99.90;;;;;;5073745;28;20074;-66
2022/10/02 08:05:34;;;;;;;4.13;3.33;;;32.80;99.90;;;;;;5073745;28;20055;-66
2022/10/02 08:08:25;;;;;;;5.55;3.28;;;32.80;99.90;;;;;;5073755;28;20032;-68
2022/10/02 08:10:55;;;;;;;5.28;3.33;;;32.90;99.90;;;;;;5026672;28;20520;-65
2022/10/02 08:13:28;;;;;;;6.15;3.97;;;32.80;99.90;;;;;;5020538;28;20025;-66
2022/10/02 08:15:55;;;;;;;4.65;3.22;;;32.80;99.90;;;;;;5031886;28;20033;-65
2022/10/02 08:18:23;;;;;;;6.95;3.40;;;32.70;99.90;;;;;;5032015;28;20021;-66
2022/10/02 08:20:50;;;;;;;6.80;4.90;;;32.70;99.90;;;;;;5031790;28;20034;-66
2022/10/02 08:23:32;;;;;;;7.75;4.10;;;32.80;99.90;;;;;;5031781;28;20435;-65
2022/10/02 08:26:06;;;;;;;14.90;8.93;;;32.80;99.90;;;;;;5027092;28;20046;-64
2022/10/02 08:28:45;;;;;;;7.03;4.05;;;32.80;99.90;;;;;;5021858;28;20033;-66
2022/10/02 08:31:13;;;;;;;6.47;5.25;;;32.90;99.90;;;;;;5027719;28;20034;-65
2022/10/02 08:33:41;;;;;;;8.38;6.40;;;33.00;99.90;;;;;;5031886;28;20049;-65
2022/10/02 08:36:12;;;;;;;21.10;16.88;;;32.90;99.90;;;;;;5031624;28;20038;-65
2022/10/02 08:38:46;;;;;;;25.35;18.77;;;32.80;99.90;;;;;;5012936;28;20528;-64
2022/10/02 08:41:32;;;;;;;12.38;10.48;;;32.80;99.90;;;;;;5047601;28;20553;-65
2022/10/02 08:44:00;;;;;;;6.95;4.47;;;32.90;99.90;;;;;;5077587;28;20435;-65
2022/10/02 08:46:48;;;;;;;6.13;5.53;;;32.90;99.90;;;;;;5083344;28;20031;-65
2022/10/02 08:49:25;;;;;;;7.07;3.83;;;33.00;99.90;;;;;;5082945;28;20024;-66
2022/10/02 08:52:13;;;;;;;7.25;3.95;;;32.90;99.90;;;;;;5087248;28;20047;-67
2022/10/02 08:55:15;;;;;;;8.95;5.15;;;32.80;99.90;;;;;;5086548;28;20028;-66
2022/10/02 08:57:56;;;;;;;10.30;6.20;;;32.70;99.90;;;;;;5076209;28;20028;-68
2022/10/02 09:00:34;;;;;;;10.18;7.78;;;32.70;99.90;;;;;;5075932;28;20039;-68
2022/10/02 09:03:24;;;;;;;22.38;12.57;;;32.60;99.80;;;;;;5059148;28;20024;-68
2022/10/02 09:06:18;;;;;;;14.20;7.80;;;32.60;99.90;;;;;;5079629;28;20512;-68
2022/10/02 09:09:03;;;;;;;24.27;17.40;;;32.60;99.80;;;;;;5076779;28;20025;-67
2022/10/02 09:12:10;;;;;;;41.60;34.22;;;32.60;99.30;;;;;;5076445;28;20108;-67
2022/10/02 09:14:48;;;;;;;22.05;15.77;;;32.60;99.40;;;;;;5095697;28;20020;-68
2022/10/02 09:17:39;;;;;;;22.92;13.38;;;32.50;99.90;;;;;;5095705;28;20020;-65
2022/10/02 09:20:45;;;;;;;24.75;15.73;;;32.40;99.90;;;;;;5105055;28;20429;-66
2022/10/02 09:23:54;;;;;;;17.83;13.05;;;32.30;99.90;;;;;;5106027;28;20020;-65
2022/10/02 09:26:41;;;;;;;14.57;10.63;;;32.40;99.90;;;;;;5101812;28;20111;-65
2022/10/02 09:29:33;;;;;;;28.38;19.30;;;32.30;99.90;;;;;;5102234;28;20020;-65
2022/10/02 09:32:09;;;;;;;87.60;65.38;;;32.20;99.90;;;;;;5105252;28;20038;-66
2022/10/02 09:34:49;;;;;;;34.85;26.83;;;32.20;99.90;;;;;;5103767;28;20439;-66
2022/10/02 09:37:20;;;;;;;30.98;24.48;;;32.30;99.90;;;;;;5103786;28;20370;-67
2022/10/02 09:40:07;;;;;;;39.67;24.83;;;32.20;99.90;;;;;;5099031;28;20021;-68
2022/10/02 09:43:03;;;;;;;25.02;18.38;;;32.10;99.90;;;;;;5104288;28;20024;-69
2022/10/02 09:45:56;;;;;;;41.40;29.33;;;32.00;99.90;;;;;;5100479;28;20454;-68
2022/10/02 09:48:55;;;;;;;40.97;30.48;;;32.00;99.90;;;;;;5096964;28;20046;-64
2022/10/02 09:51:27;;;;;;;22.85;14.32;;;31.90;99.90;;;;;;5079727;28;20046;-68
2022/10/02 09:54:34;;;;;;;24.42;16.48;;;31.90;99.90;;;;;;5094773;28;20469;-67
2022/10/02 09:57:05;;;;;;;27.05;19.17;;;31.90;99.90;;;;;;5095047;28;20024;-68
2022/10/02 10:00:01;;;;;;;24.63;19.25;;;31.90;99.90;;;;;;5094109;28;20019;-68
2022/10/02 10:02:27;;;;;;;29.95;21.58;;;31.80;99.90;;;;;;5091276;28;20040;-67
2022/10/02 10:05:15;;;;;;;31.15;20.55;;;31.80;99.90;;;;;;5094769;28;20476;-67
2022/10/02 10:07:50;;;;;;;33.72;20.73;;;31.70;99.90;;;;;;5094705;28;20063;-66
2022/10/02 10:10:48;;;;;;;24.65;16.77;;;31.80;99.90;;;;;;5074449;28;20021;-66
2022/10/02 10:13:34;;;;;;;29.70;17.38;;;31.70;99.90;;;;;;4973610;28;20062;-66
2022/10/02 10:16:12;;;;;;;29.83;19.05;;;31.60;99.90;;;;;;4973782;28;20038;-68
2022/10/02 10:18:42;;;;;;;26.75;17.25;;;31.50;99.90;;;;;;4994478;28;20022;-64
2022/10/02 10:21:28;;;;;;;22.92;14.18;;;31.50;99.90;;;;;;4997170;28;20103;-65
2022/10/02 10:24:05;;;;;;;25.30;16.10;;;31.40;99.90;;;;;;4999442;28;20480;-68
2022/10/02 10:27:00;;;;;;;24.65;16.23;;;31.40;99.90;;;;;;4994536;28;20041;-66
2022/10/02 10:29:46;;;;;;;29.33;16.27;;;31.40;99.90;;;;;;4992799;28;20389;-67
2022/10/02 10:32:37;;;;;;;35.60;21.35;;;31.40;99.90;;;;;;5001473;28;20555;-63
2022/10/02 10:35:15;;;;;;;90.50;65.72;;;31.50;99.90;;;;;;5001710;28;20557;-64
2022/10/02 10:41:08;;;;;;;21.38;14.40;;;31.30;99.90;;;;;;4998654;28;20046;-63
2022/10/02 10:43:37;;;;;;;19.75;14.07;;;31.20;99.90;;;;;;5002369;28;20030;-62
2022/10/02 10:46:31;;;;;;;32.40;23.17;;;31.20;99.90;;;;;;5000550;28;20425;-63
2022/10/02 10:49:20;;;;;;;84.20;60.70;;;31.20;99.90;;;;;;5002440;28;20178;-64
2022/10/02 10:52:27;;;;;;;39.75;30.73;;;31.00;99.90;;;;;;5000001;28;20573;-62
2022/10/02 10:55:24;;;;;;;54.85;42.03;;;30.90;99.90;;;;;;4949023;29;20394;-63
2022/10/02 10:58:20;;;;;;;47.50;36.05;;;30.90;99.90;;;;;;4941267;29;20039;-62
2022/10/02 11:01:05;;;;;;;29.35;18.38;;;30.80;99.90;;;;;;4934499;29;20129;-63
2022/10/02 11:04:12;;;;;;;23.88;15.40;;;30.80;99.90;;;;;;4926319;29;20036;-63
2022/10/02 11:07:18;;;;;;;29.95;16.27;;;30.80;99.90;;;;;;4932091;29;20043;-65
2022/10/02 11:10:01;;;;;;;23.10;13.85;;;30.80;99.90;;;;;;4961132;28;20513;-63
2022/10/02 11:12:48;;;;;;;55.85;42.60;;;30.70;99.90;;;;;;4981264;28;20259;-63
2022/10/02 11:15:35;;;;;;;57.95;40.25;;;30.60;99.90;;;;;;4936499;29;20036;-65
2022/10/02 11:18:20;;;;;;;48.22;30.88;;;30.60;99.90;;;;;;4936700;29;20072;-65
2022/10/02 11:21:09;;;;;;;58.45;40.83;;;30.40;99.90;;;;;;4927704;29;20042;-63
2022/10/02 11:23:57;;;;;;;59.03;36.13;;;30.30;99.90;;;;;;4917655;29;20488;-64
2022/10/02 11:26:39;;;;;;;14.85;9.95;;;30.10;99.90;;;;;;4921769;29;20083;-64
2022/10/02 11:29:13;;;;;;;20.03;12.23;;;29.70;99.90;;;;;;4943295;29;20035;-63
2022/10/02 11:32:13;;;;;;;22.75;14.18;;;29.50;99.90;;;;;;4940760;29;20027;-65
2022/10/02 11:35:11;;;;;;;25.83;13.57;;;29.50;99.90;;;;;;4940390;29;20110;-64
2022/10/02 11:37:59;;;;;;;16.15;10.40;;;29.40;99.90;;;;;;4944099;29;20028;-65
2022/10/02 11:40:35;;;;;;;20.60;10.02;;;29.40;99.90;;;;;;4944724;29;20031;-64
2022/10/02 11:43:31;;;;;;;16.77;10.20;;;29.20;99.90;;;;;;4944685;29;20046;-63
2022/10/02 11:46:05;;;;;;;21.20;10.80;;;29.10;99.90;;;;;;4942773;29;20064;-65
2022/10/02 11:49:01;;;;;;;20.02;10.98;;;29.10;99.90;;;;;;4941115;29;20083;-63
2022/10/02 11:51:49;;;;;;;18.38;10.23;;;28.90;99.90;;;;;;4952061;28;20203;-64
2022/10/02 11:54:25;;;;;;;22.33;11.80;;;28.80;99.90;;;;;;4992196;28;20027;-63
2022/10/02 11:57:31;;;;;;;29.25;13.13;;;28.60;99.90;;;;;;4999142;28;20030;-64
2022/10/02 12:00:11;;;;;;;23.17;10.43;;;28.50;99.90;;;;;;5000955;28;20057;-65
2022/10/02 12:02:40;;;;;;;15.15;9.05;;;28.60;99.90;;;;;;5000602;28;20440;-64
2022/10/02 12:05:37;;;;;;;16.80;7.72;;;28.70;99.90;;;;;;4997684;28;20022;-65
2022/10/02 12:08:13;;;;;;;20.00;8.70;;;28.50;99.90;;;;;;5001923;28;20448;-64
2022/10/02 12:10:52;;;;;;;18.48;9.27;;;28.50;99.90;;;;;;5002114;28;20208;-65
2022/10/02 12:13:38;;;;;;;18.52;8.70;;;28.30;99.90;;;;;;5000878;28;20026;-64
2022/10/02 12:16:23;;;;;;;15.40;9.30;;;28.30;99.90;;;;;;4943944;29;20035;-64
2022/10/02 12:19:14;;;;;;;15.70;10.48;;;28.30;99.90;;;;;;4940374;29;20071;-64
2022/10/02 12:28:09;;;;;;;18.98;9.60;;;28.30;99.90;;;;;;4991942;28;20106;-65
2022/10/02 12:31:00;;;;;;;18.58;10.18;;;28.30;99.90;;;;;;4993867;28;20042;-63
2022/10/02 12:33:36;;;;;;;20.48;9.15;;;28.20;99.90;;;;;;4993250;28;20117;-64
2022/10/02 12:36:40;;;;;;;16.27;9.30;;;28.20;99.90;;;;;;4994004;28;20036;-64
2022/10/02 12:39:29;;;;;;;17.42;9.23;;;28.30;99.90;;;;;;4993366;28;20034;-67
2022/10/02 12:42:16;;;;;;;22.38;10.38;;;28.20;99.90;;;;;;4994068;28;20069;-65
2022/10/02 12:45:13;;;;;;;20.38;10.57;;;28.30;99.90;;;;;;4997883;28;20062;-64
2022/10/02 12:47:40;;;;;;;24.08;11.50;;;28.20;99.90;;;;;;5030543;28;20524;-65
2022/10/02 12:50:22;;;;;;;20.58;10.43;;;28.20;99.90;;;;;;5032448;28;20033;-67
2022/10/02 12:53:28;;;;;;;17.35;10.82;;;28.20;99.90;;;;;;5024198;28;20039;-63
2022/10/02 12:56:02;;;;;;;14.73;9.70;;;28.20;99.90;;;;;;5016643;28;20540;-64
2022/10/02 12:58:49;;;;;;;17.75;9.57;;;28.20;99.90;;;;;;5014922;28;20038;-65
2022/10/02 13:01:29;;;;;;;17.52;9.43;;;28.20;99.90;;;;;;5014940;28;20045;-64
2022/10/02 13:04:15;;;;;;;21.02;10.30;;;28.20;99.90;;;;;;5014740;28;20396;-65
2022/10/02 13:06:45;;;;;;;25.73;10.93;;;28.10;99.90;;;;;;4956338;29;20042;-63
2022/10/02 13:09:22;;;;;;;20.15;10.45;;;28.20;99.90;;;;;;4956409;29;20039;-64
2022/10/02 13:11:52;;;;;;;17.45;11.02;;;28.20;99.90;;;;;;4955994;29;20031;-63
2022/10/02 13:15:00;;;;;;;25.75;12.38;;;28.20;99.90;;;;;;4973803;28;20505;-63
2022/10/02 13:17:45;;;;;;;17.52;11.25;;;28.20;99.90;;;;;;5033825;28;20033;-63
2022/10/02 13:20:25;;;;;;;27.10;13.32;;;28.20;99.90;;;;;;5033774;28;20495;-61
2022/10/02 13:22:58;;;;;;;22.00;13.23;;;28.10;99.90;;;;;;5025721;28;20033;-62
2022/10/02 13:25:53;;;;;;;23.73;10.98;;;28.20;99.90;;;;;;5025260;28;20026;-63
2022/10/02 13:28:48;;;;;;;14.63;9.38;;;28.20;99.90;;;;;;5026821;28;20029;-63
2022/10/02 13:31:24;;;;;;;16.40;9.32;;;28.20;99.90;;;;;;5032383;28;20037;-63
2022/10/02 13:34:04;;;;;;;16.80;9.23;;;28.10;99.90;;;;;;5033686;28;20496;-64
2022/10/02 13:36:49;;;;;;;15.93;9.25;;;28.10;99.90;;;;;;5023951;28;20042;-63
2022/10/02 13:39:23;;;;;;;18.83;10.82;;;28.10;99.90;;;;;;5013871;28;20041;-63
2022/10/02 13:41:58;;;;;;;21.15;13.93;;;28.10;99.90;;;;;;5013760;28;20481;-63
2022/10/02 13:44:24;;;;;;;24.55;12.73;;;28.10;99.90;;;;;;5013725;28;20463;-63
2022/10/02 13:47:00;;;;;;;18.27;12.43;;;28.00;99.90;;;;;;5014007;28;20162;-64
2022/10/02 13:49:57;;;;;;;25.38;12.95;;;27.90;99.90;;;;;;5032045;28;20044;-63
2022/10/02 13:52:43;;;;;;;28.88;13.43;;;27.90;99.90;;;;;;5031663;28;20029;-63